Mc Comb, Pike County, John E Lewis Field Mc Comb US
ICAO: KMCB
IATA: MCB
Category: Medium
Scheduled Services: No

Elevation: 413 ft
TransAlt. 18000 ft.

Airport Communications:
ASOS:119.025
HOUSTON CNTR:133.5
GREENWOOD RDO:122.2
CTAF/UNICOM:123.05

KMCB Zoom In..

Runways:

(A) RW 15 length 5000 ft width 100 ft
ILS 109.10 / hdg 153

(B) RW 33 length 5000 ft width 100 ft
---- / hdg 333

Location; KMCB
Day. 13 / Time. 12.53 Zulu
* Altimeter: 30.02
* Temperature: 26° c. 78.8°f.
* Wind from: 180° Speed 03 kn.
Dewpoint: 24° c.
Visibility: 10 Statute Miles.
Clouds: Few 12000 ft.

KMCB 131253Z AUTO 18003KT 10SM FEW120 26/24 A3002 RMK AO2 SLP159 T02560239

Going to: --> -->


Wind From 180°
Speed 03 kn.

 
 
jpsmedia worldairports.se 2020   terms of use